Weather observations for the past three days for
Macdill Air Force Base, Fl.
| Date | Time (edt) | Wind (kph) | Vis. (km) | Weather | Sky Cond. | Temperature (ºC) | Relative Humidity | Wind Chill (°C) | Heat Index (°C) | Pressure | Precipitation (cm) | ||||||
|---|---|---|---|---|---|---|---|---|---|---|---|---|---|---|---|---|---|
| Air | Dwpt | 6 hour | altimeter (cm) | sea level (mb) | 1 hr | 3 hr | 6 hr | ||||||||||
| Max. | Min. | ||||||||||||||||
| 10 | 07:55 | SE 9 | 16.09 | Fair | CLR | 25.5 | 22.2 | 26.2 | 23.8 | 82% | 27 | 76.17 | 1015.8 | ||||
| 10 | 06:55 | Calm | 16.09 | Fair | CLR | 24 | 21.5 | 86% | 24 | 76.1 | 1014.8 | ||||||
| 10 | 05:55 | SE 15 | 16.09 | Fair | CLR | 25.1 | 22 | 83% | 26 | 76.02 | 1013.8 | ||||||
| 10 | 04:55 | SE 13 | 16.09 | Fair | CLR | 25.8 | 23.6 | 88% | 27 | 75.97 | 1013.1 | ||||||
| 10 | 03:55 | SE 9 | 16.09 | Fair | CLR | 25.1 | 22.2 | 84% | 26 | 76 | 1013.4 | ||||||
| 10 | 02:55 | SE 7 | 16.09 | A Few Clouds | FEW100 | 25.5 | 23.5 | 89% | 27 | 76.02 | 1013.8 | ||||||
| 10 | 01:55 | Calm | 16.09 | Light Drizzle | BKN018 BKN024 BKN050 OVC060 | 26.1 | 23.1 | 28.1 | 24.4 | 84% | 28 | 76.07 | 1014.5 | ||||
| 10 | 00:55 | Calm | 16.09 | Overcast | OVC065 | 25.9 | 22.6 | 82% | 28 | 76.1 | 1014.8 | ||||||
| 09 | 23:55 | Calm | 16.09 | A Few Clouds | FEW100 | 24.9 | 22 | 84% | 26 | 76.12 | 1015.1 | ||||||
| 09 | 22:55 | NW 6 | 16.09 | A Few Clouds | FEW065 | 26.5 | 22.5 | 79% | 29 | 76.1 | 1014.8 | ||||||
| 09 | 21:55 | Calm | 16.09 | Mostly Cloudy | BKN065 | 27.6 | 22.3 | 73% | 30 | 76.07 | 1014.5 | ||||||
| 09 | 20:55 | W 7 | 16.09 | A Few Clouds | FEW080 | 27.5 | 21.7 | 71% | 30 | 76 | 1013.4 | ||||||
| 09 | 19:55 | W 13 | 16.09 | Fair | CLR | 27.9 | 22.6 | 32.8 | 27.7 | 73% | 31 | 75.95 | 1012.8 | ||||
| 09 | 18:55 | SW 20 | 16.09 | Partly Cloudy | SCT110 | 28.7 | 23.3 | 73% | 33 | 75.92 | 1012.4 | ||||||
| 09 | 17:55 | SW 20 | 16.09 | Fair | CLR | 30 | 23.4 | 68% | 35 | 75.9 | 1012.1 | ||||||
| 09 | 16:55 | SW 24 | 16.09 | Fair | CLR | 29.7 | 23.1 | 68% | 34 | 75.87 | 1011.8 | ||||||
| 09 | 15:55 | SW 26 | 16.09 | A Few Clouds | FEW210 | 31.3 | 21.1 | 55% | 34 | 75.92 | 1012.4 | ||||||
| 09 | 14:55 | SW 28 | 16.09 | A Few Clouds | FEW100 | 31.8 | 21 | 53% | 35 | 75.97 | 1013.1 | ||||||
| 09 | 13:55 | SW 22 | 16.09 | Partly Cloudy | FEW095 FEW160 SCT200 | 31.8 | 21.9 | 32.1 | 25.1 | 56% | 35 | 75.97 | 1013.1 | ||||
| 09 | 12:55 | SW 13 | 16.09 | Partly Cloudy | FEW130 FEW160 SCT200 | 30.7 | 22.3 | 61% | 34 | 75.97 | 1013.1 | ||||||
| 09 | 11:55 | SW 9 | 16.09 | A Few Clouds | FEW190 | 29.4 | 21.1 | 61% | 32 | 76.02 | 1013.8 | ||||||
| 09 | 10:55 | S 11 | 16.09 | Fair | CLR | 29.2 | 22.9 | 69% | 33 | 76.05 | 1014.1 | ||||||
| 09 | 09:55 | W 6 | 16.09 | Fair | CLR | 28.6 | 22.3 | 69% | 32 | 76.05 | 1014.1 | ||||||
| 09 | 08:55 | Calm | 16.09 | Mostly Cloudy | BKN095 | 26.7 | 22.3 | 77% | 29 | 76.02 | 1013.8 | ||||||
| 09 | 07:55 | Calm | 16.09 | Overcast | OVC085 | 25.1 | 22.9 | 25.1 | 22.5 | 88% | 26 | 76.02 | 1013.8 | ||||
| 09 | 06:55 | SE 6 | 16.09 | A Few Clouds | FEW090 | 23.8 | 22 | 90% | 75.95 | 1012.8 | |||||||
| 09 | 05:55 | Calm | 16.09 | Partly Cloudy | SCT085 | 23.5 | 22.4 | 94% | 75.95 | 1012.8 | |||||||
| 09 | 04:55 | Calm | 9.66 | Fog/Mist | CLR | 22.5 | 21.5 | 94% | 75.97 | 1013.1 | |||||||
| 09 | 03:55 | E 6 | 16.09 | Fair | CLR | 23.5 | 22.1 | 92% | 75.95 | 1012.8 | |||||||
| 09 | 02:55 | N 6 | 16.09 | Fair | CLR | 24.1 | 22.5 | 91% | 24 | 76 | 1013.4 | ||||||
| 09 | 01:55 | NE 7 | 16.09 | Fair | CLR | 23.6 | 22 | 28.9 | 23.6 | 91% | 76.05 | 1014.1 | |||||
| 09 | 00:55 | NW 6 | 16.09 | Fair | CLR | 25.5 | 22.4 | 83% | 27 | 76.1 | 1014.8 | ||||||
| 08 | 23:55 | NW 6 | 16.09 | Fair | CLR | 26 | 22.5 | 81% | 28 | 76.12 | 1015.1 | ||||||
| 08 | 22:55 | NW 11 | 16.09 | Fair | CLR | 26.3 | 22.7 | 81% | 28 | 76.1 | 1014.8 | ||||||
| 08 | 21:55 | NW 15 | 16.09 | Fair | CLR | 26.6 | 22.8 | 80% | 29 | 76.07 | 1014.5 | ||||||
| 08 | 20:55 | W 15 | 16.09 | Fair | CLR | 27.3 | 22 | 73% | 30 | 76.02 | 1013.8 | ||||||
| 08 | 19:55 | W 11 | 16.09 | Fair | CLR | 29 | 20.7 | 32.3 | 29 | 61% | 31 | 75.95 | 1012.8 | ||||
| 08 | 18:55 | NW 15 | 16.09 | Fair | CLR | 31.1 | 19.4 | 50% | 33 | 75.92 | 1012.4 | ||||||
| 08 | 17:55 | NW 11 | 16.09 | Fair | CLR | 31.1 | 21.2 | 56% | 34 | 75.9 | 1012.1 | ||||||
| 08 | 16:55 | SW 13 | 16.09 | Fair | CLR | 32 | 22.1 | 56% | 36 | 75.9 | 1012.1 | ||||||
| 08 | 15:55 | SW 17 | 16.09 | Fair | CLR | 31 | 23.1 | 63% | 36 | 75.97 | 1013.1 | ||||||
| 08 | 14:55 | W 11 | 16.09 | A Few Clouds | FEW160 | 31.7 | 22.4 | 58% | 36 | 76.02 | 1013.8 | ||||||
| 08 | 13:55 | W 11 | 16.09 | Partly Cloudy | FEW100 FEW130 SCT160 SCT180 | 32.2 | 21.1 | 32.2 | 25.7 | 52% | 35 | 76.1 | 1014.8 | ||||
| 08 | 12:55 | W 15 | 16.09 | Partly Cloudy | FEW120 FEW160 SCT210 | 31.2 | 21 | 55% | 34 | 76.12 | 1015.1 | ||||||
| 08 | 11:55 | W 13 | 16.09 | Fair | CLR | 30.5 | 21.8 | 60% | 34 | 76.17 | 1015.8 | ||||||
| 08 | 10:55 | W 15 | 16.09 | Fair | CLR | 29.5 | 22.4 | 66% | 33 | 76.2 | 1016.2 | ||||||
| 08 | 09:55 | NW 11 | 16.09 | Fair | CLR | 28.2 | 22.9 | 73% | 31 | 76.2 | 1016.2 | ||||||
| 08 | 08:55 | W 9 | 16.09 | Fair | CLR | 26.6 | 23.6 | 84% | 29 | 76.2 | 1016.2 | ||||||
| 08 | 07:55 | Calm | 16.09 | Fair | CLR | 25.6 | 23 | 25.7 | 24.1 | 86% | 27 | 76.15 | 1015.5 | ||||
| 08 | 06:55 | Calm | 2.82 | Fog/Mist | CLR | 24.4 | 22.3 | 88% | 24 | 76.1 | 1014.8 | ||||||
| 08 | 05:55 | Calm | 2.22 | Fog/Mist | CLR | 24.4 | 22.3 | 88% | 24 | 76.05 | 1014.1 | ||||||
| 08 | 04:55 | Calm | 12.87 | Fair | CLR | 24.3 | 22.2 | 88% | 24 | 76.02 | 1013.8 | ||||||
| 08 | 03:55 | Calm | 16.09 | Fair | CLR | 24.7 | 22.2 | 86% | 25 | 76.02 | 1013.8 | ||||||
| 08 | 02:55 | Calm | 16.09 | Fair | CLR | 24.8 | 21.9 | 84% | 25 | 76.05 | 1014.1 | ||||||
| 08 | 01:55 | Calm | 16.09 | Fair | CLR | 24.8 | 21.7 | 27.9 | 24.8 | 83% | 25 | 76.1 | 1014.8 | ||||
| 08 | 00:55 | Calm | 16.09 | Fair | CLR | 24.9 | 21.6 | 82% | 26 | 76.1 | 1014.8 | ||||||
| 07 | 23:55 | W 7 | 16.09 | Fair | CLR | 25.2 | 21.5 | 80% | 26 | 76.12 | 1015.1 | ||||||
| 07 | 22:55 | W 6 | 16.09 | Fair | CLR | 25.2 | 21.1 | 78% | 26 | 76.12 | 1015.1 | ||||||
| 07 | 21:55 | W 7 | 16.09 | Fair | CLR | 25.8 | 20.3 | 72% | 27 | 76.1 | 1014.8 | ||||||
| 07 | 20:55 | W 7 | 16.09 | Fair | CLR | 26.7 | 20.5 | 69% | 28 | 76.07 | 1014.5 | ||||||
| 07 | 19:55 | W 7 | 16.09 | Fair | CLR | 27.9 | 19.9 | 30.8 | 27.9 | 62% | 30 | 76.05 | 1014.1 | ||||
| 07 | 18:55 | W 11 | 16.09 | Fair | CLR | 29.7 | 19.1 | 53% | 31 | 76.05 | 1014.1 | ||||||
| 07 | 17:55 | W 7 | 16.09 | Fair | CLR | 30.2 | 18.3 | 49% | 31 | 76.05 | 1014.1 | ||||||
| 07 | 16:55 | S 17 | 16.09 | Fair | CLR | 30.3 | 19.9 | 54% | 32 | 76.07 | 1014.5 | ||||||
| 07 | 15:55 | SW 13 | 16.09 | Fair | CLR | 30.3 | 19.9 | 54% | 32 | 76.1 | 1014.8 | ||||||
| 07 | 14:55 | S 28 | 16.09 | A Few Clouds | FEW200 | 29.9 | 21.5 | 61% | 33 | 76.15 | 1015.5 | ||||||
| 07 | 13:55 | S 24 | 16.09 | Partly Cloudy | FEW140 SCT170 SCT200 | 29.5 | 21.7 | 29.9 | 23.9 | 63% | 32 | 76.2 | 1016.2 | ||||
| 07 | 12:55 | S 28 | 16.09 | A Few Clouds | FEW180 | 29.6 | 21.5 | 62% | 32 | 76.23 | 1016.5 | ||||||
| 07 | 11:55 | S 26 | 16.09 | Fair | CLR | 29.4 | 22.1 | 65% | 33 | 76.25 | 1016.8 | ||||||
| 07 | 10:55 | S 24 | 16.09 | Fair | CLR | 28.7 | 21.7 | 66% | 31 | 76.25 | 1016.8 | ||||||
| 07 | 09:55 | S 15 | 16.09 | Fair | CLR | 27.1 | 22.2 | 75% | 29 | 76.23 | 1016.5 | ||||||
| 07 | 08:55 | S 15 | 16.09 | Fair | CLR | 25.7 | 22.2 | 81% | 27 | 76.2 | 1016.2 | ||||||
| Date | Time (edt) | Wind (kph) | Vis. (km) | Weather | Sky Cond. | Air | Dwpt | Max. | Min. | Relative Humidity | Wind Chill (°C) | Heat Index (°C) | altimeter (cm) | sea level (mb) | 1 hr | 3 hr | 6 hr |
| 6 hour | |||||||||||||||||
| Temperature (ºC) | Pressure | Precipitation (cm) | |||||||||||||||